createdAt,value
2023-10-27T00:06:46.102Z,100
2023-10-27T00:35:25.255Z,100
2023-10-27T01:04:06.399Z,100
2023-10-27T01:33:04.430Z,100
2023-10-27T02:02:00.703Z,100
2023-10-27T02:30:59.161Z,100
2023-10-27T02:59:51.217Z,100
2023-10-27T03:28:44.993Z,100
2023-10-27T03:57:41.960Z,100
2023-10-27T04:26:28.912Z,100
2023-10-27T04:55:21.695Z,100
2023-10-27T05:24:20.219Z,100
2023-10-27T05:53:26.830Z,100
2023-10-27T06:22:29.967Z,100
2023-10-27T06:51:22.160Z,100
2023-10-27T07:20:23.178Z,100
2023-10-27T07:49:10.501Z,100
2023-10-27T08:18:05.500Z,100
2023-10-27T08:46:56.673Z,91.57
2023-10-27T09:16:23.155Z,75.52
2023-10-27T09:45:19.411Z,69.49
2023-10-27T10:14:17.023Z,71.71
2023-10-27T10:43:10.788Z,82.74
2023-10-27T11:11:56.694Z,85.97
2023-10-27T11:40:53.066Z,93.69
2023-10-27T12:10:13.056Z,85.51
2023-10-27T12:38:40.045Z,79.89
2023-10-27T13:07:45.381Z,77.75
2023-10-27T13:36:16.826Z,81.91
2023-10-27T14:05:08.143Z,79.09
2023-10-27T14:33:58.137Z,78.37
2023-10-27T15:02:50.785Z,77.27
2023-10-27T15:31:49.377Z,77.93
2023-10-27T16:00:12.188Z,82.74
2023-10-27T16:29:03.887Z,86
2023-10-27T16:57:56.200Z,86.43
2023-10-27T17:26:50.633Z,86.23
2023-10-27T17:55:39.159Z,83.71
2023-10-27T18:24:36.478Z,82.85
2023-10-27T18:53:26.419Z,84.57
2023-10-27T19:22:23.784Z,94.08
2023-10-27T19:51:16.949Z,100
2023-10-27T20:20:15.646Z,100
2023-10-27T20:49:06.161Z,100
2023-10-27T21:18:00.344Z,100
2023-10-27T21:46:47.274Z,100
2023-10-27T22:15:38.301Z,100
2023-10-27T22:44:28.634Z,100
2023-10-27T23:13:29.805Z,100
2023-10-27T23:42:28.414Z,99.56
